sensor_id;sensor_type;location;lat;lon;timestamp;P1;durP1;ratioP1;P2;durP2;ratioP2
22248;SDS011;67538;52.180;5.646;2023-05-16T00:01:58;18.97;;;4.03;;
22248;SDS011;67538;52.180;5.646;2023-05-16T00:04:28;21.90;;;4.30;;
22248;SDS011;67538;52.180;5.646;2023-05-16T00:06:57;21.17;;;4.70;;
22248;SDS011;67538;52.180;5.646;2023-05-16T00:09:24;22.47;;;4.40;;
22248;SDS011;67538;52.180;5.646;2023-05-16T00:11:51;19.80;;;4.35;;
22248;SDS011;67538;52.180;5.646;2023-05-16T00:14:18;21.65;;;4.55;;
22248;SDS011;67538;52.180;5.646;2023-05-16T00:16:45;17.60;;;3.83;;
22248;SDS011;67538;52.180;5.646;2023-05-16T00:19:12;19.98;;;3.75;;
22248;SDS011;67538;52.180;5.646;2023-05-16T00:21:41;12.88;;;3.30;;
22248;SDS011;67538;52.180;5.646;2023-05-16T00:24:08;21.42;;;4.53;;
22248;SDS011;67538;52.180;5.646;2023-05-16T00:26:35;14.73;;;3.55;;
22248;SDS011;67538;52.180;5.646;2023-05-16T00:29:03;17.15;;;3.80;;
22248;SDS011;67538;52.180;5.646;2023-05-16T00:31:31;17.65;;;4.00;;
22248;SDS011;67538;52.180;5.646;2023-05-16T00:33:58;22.83;;;4.40;;
22248;SDS011;67538;52.180;5.646;2023-05-16T00:36:25;20.05;;;4.38;;
22248;SDS011;67538;52.180;5.646;2023-05-16T00:38:54;22.40;;;4.50;;
22248;SDS011;67538;52.180;5.646;2023-05-16T00:41:21;19.58;;;3.90;;
22248;SDS011;67538;52.180;5.646;2023-05-16T00:43:49;17.92;;;4.00;;
22248;SDS011;67538;52.180;5.646;2023-05-16T00:46:16;20.30;;;3.67;;
22248;SDS011;67538;52.180;5.646;2023-05-16T00:48:43;19.05;;;3.92;;
22248;SDS011;67538;52.180;5.646;2023-05-16T00:51:10;21.33;;;3.80;;
22248;SDS011;67538;52.180;5.646;2023-05-16T00:53:37;20.17;;;3.67;;
22248;SDS011;67538;52.180;5.646;2023-05-16T00:56:06;16.98;;;3.53;;
22248;SDS011;67538;52.180;5.646;2023-05-16T00:58:33;16.33;;;3.85;;
22248;SDS011;67538;52.180;5.646;2023-05-16T01:01:01;18.48;;;3.88;;
22248;SDS011;67538;52.180;5.646;2023-05-16T01:03:29;18.92;;;4.00;;
22248;SDS011;67538;52.180;5.646;2023-05-16T01:05:56;20.97;;;4.33;;
22248;SDS011;67538;52.180;5.646;2023-05-16T01:08:24;12.48;;;3.40;;
22248;SDS011;67538;52.180;5.646;2023-05-16T01:10:54;13.37;;;3.47;;
22248;SDS011;67538;52.180;5.646;2023-05-16T01:13:32;18.83;;;3.45;;
22248;SDS011;67538;52.180;5.646;2023-05-16T01:16:08;19.45;;;3.90;;
22248;SDS011;67538;52.180;5.646;2023-05-16T01:18:41;21.25;;;4.15;;
22248;SDS011;67538;52.180;5.646;2023-05-16T01:21:15;15.75;;;3.70;;
22248;SDS011;67538;52.180;5.646;2023-05-16T01:23:50;19.67;;;3.80;;
22248;SDS011;67538;52.180;5.646;2023-05-16T01:26:23;15.32;;;3.60;;
22248;SDS011;67538;52.180;5.646;2023-05-16T01:28:52;15.10;;;3.70;;
22248;SDS011;67538;52.180;5.646;2023-05-16T01:31:20;18.33;;;4.35;;
22248;SDS011;67538;52.180;5.646;2023-05-16T01:33:47;16.85;;;4.45;;
22248;SDS011;67538;52.180;5.646;2023-05-16T01:36:18;21.20;;;4.35;;
22248;SDS011;67538;52.180;5.646;2023-05-16T01:38:52;18.85;;;3.97;;
22248;SDS011;67538;52.180;5.646;2023-05-16T01:41:29;18.92;;;4.13;;
22248;SDS011;67538;52.180;5.646;2023-05-16T01:44:06;15.93;;;3.70;;
22248;SDS011;67538;52.180;5.646;2023-05-16T01:46:39;23.10;;;4.13;;
22248;SDS011;67538;52.180;5.646;2023-05-16T01:49:11;18.50;;;3.97;;
22248;SDS011;67538;52.180;5.646;2023-05-16T01:51:42;17.93;;;3.70;;
22248;SDS011;67538;52.180;5.646;2023-05-16T01:54:14;19.00;;;4.47;;
22248;SDS011;67538;52.180;5.646;2023-05-16T01:56:47;16.15;;;3.72;;
22248;SDS011;67538;52.180;5.646;2023-05-16T01:59:16;18.42;;;4.38;;
22248;SDS011;67538;52.180;5.646;2023-05-16T02:01:45;18.42;;;4.03;;
22248;SDS011;67538;52.180;5.646;2023-05-16T02:04:13;15.65;;;3.85;;
22248;SDS011;67538;52.180;5.646;2023-05-16T02:06:40;16.50;;;3.92;;
22248;SDS011;67538;52.180;5.646;2023-05-16T02:09:07;19.67;;;3.90;;
22248;SDS011;67538;52.180;5.646;2023-05-16T02:11:34;17.73;;;3.63;;
22248;SDS011;67538;52.180;5.646;2023-05-16T02:14:03;14.50;;;3.50;;
22248;SDS011;67538;52.180;5.646;2023-05-16T02:16:30;17.63;;;3.87;;
22248;SDS011;67538;52.180;5.646;2023-05-16T02:18:57;15.93;;;3.53;;
22248;SDS011;67538;52.180;5.646;2023-05-16T02:21:24;16.25;;;3.90;;
22248;SDS011;67538;52.180;5.646;2023-05-16T02:23:51;19.88;;;3.83;;
22248;SDS011;67538;52.180;5.646;2023-05-16T02:26:18;18.80;;;3.90;;
22248;SDS011;67538;52.180;5.646;2023-05-16T02:28:46;16.08;;;3.90;;
22248;SDS011;67538;52.180;5.646;2023-05-16T02:31:25;18.42;;;3.83;;
22248;SDS011;67538;52.180;5.646;2023-05-16T02:33:53;14.93;;;3.77;;
22248;SDS011;67538;52.180;5.646;2023-05-16T02:36:20;15.63;;;4.03;;
22248;SDS011;67538;52.180;5.646;2023-05-16T02:38:47;14.85;;;3.35;;
22248;SDS011;67538;52.180;5.646;2023-05-16T02:41:14;15.45;;;3.70;;
22248;SDS011;67538;52.180;5.646;2023-05-16T02:43:41;15.30;;;3.38;;
22248;SDS011;67538;52.180;5.646;2023-05-16T02:46:19;14.02;;;3.35;;
22248;SDS011;67538;52.180;5.646;2023-05-16T02:48:50;18.25;;;3.67;;
22248;SDS011;67538;52.180;5.646;2023-05-16T02:51:19;15.32;;;3.40;;
22248;SDS011;67538;52.180;5.646;2023-05-16T02:53:46;14.07;;;3.47;;
22248;SDS011;67538;52.180;5.646;2023-05-16T02:56:14;20.43;;;3.97;;
22248;SDS011;67538;52.180;5.646;2023-05-16T02:58:41;14.48;;;3.70;;
22248;SDS011;67538;52.180;5.646;2023-05-16T03:01:09;14.95;;;3.70;;
22248;SDS011;67538;52.180;5.646;2023-05-16T03:03:36;18.50;;;3.78;;
22248;SDS011;67538;52.180;5.646;2023-05-16T03:06:04;17.15;;;3.75;;
22248;SDS011;67538;52.180;5.646;2023-05-16T03:08:31;16.20;;;4.03;;
22248;SDS011;67538;52.180;5.646;2023-05-16T03:10:59;19.67;;;4.35;;
22248;SDS011;67538;52.180;5.646;2023-05-16T03:13:26;18.95;;;3.70;;
22248;SDS011;67538;52.180;5.646;2023-05-16T03:15:54;15.70;;;3.40;;
22248;SDS011;67538;52.180;5.646;2023-05-16T03:18:21;16.63;;;4.00;;
22248;SDS011;67538;52.180;5.646;2023-05-16T03:20:48;16.80;;;3.75;;
22248;SDS011;67538;52.180;5.646;2023-05-16T03:23:18;18.15;;;3.60;;
22248;SDS011;67538;52.180;5.646;2023-05-16T03:25:45;21.88;;;4.10;;
22248;SDS011;67538;52.180;5.646;2023-05-16T03:28:12;20.55;;;4.15;;
22248;SDS011;67538;52.180;5.646;2023-05-16T03:30:39;20.27;;;3.92;;
22248;SDS011;67538;52.180;5.646;2023-05-16T03:33:06;18.52;;;3.70;;
22248;SDS011;67538;52.180;5.646;2023-05-16T03:35:34;20.40;;;3.88;;
22248;SDS011;67538;52.180;5.646;2023-05-16T03:38:01;15.18;;;3.47;;
22248;SDS011;67538;52.180;5.646;2023-05-16T03:40:30;18.38;;;3.50;;
22248;SDS011;67538;52.180;5.646;2023-05-16T03:42:57;15.70;;;3.63;;
22248;SDS011;67538;52.180;5.646;2023-05-16T03:45:24;16.92;;;3.63;;
22248;SDS011;67538;52.180;5.646;2023-05-16T03:47:51;20.38;;;3.65;;
22248;SDS011;67538;52.180;5.646;2023-05-16T03:50:18;19.25;;;4.00;;
22248;SDS011;67538;52.180;5.646;2023-05-16T03:52:45;16.47;;;3.63;;
22248;SDS011;67538;52.180;5.646;2023-05-16T03:55:12;15.30;;;3.63;;
22248;SDS011;67538;52.180;5.646;2023-05-16T03:57:41;16.42;;;3.88;;
22248;SDS011;67538;52.180;5.646;2023-05-16T04:00:08;16.50;;;3.45;;
22248;SDS011;67538;52.180;5.646;2023-05-16T04:02:37;18.98;;;3.33;;
22248;SDS011;67538;52.180;5.646;2023-05-16T04:05:06;15.50;;;3.45;;
22248;SDS011;67538;52.180;5.646;2023-05-16T04:07:34;19.50;;;3.90;;
22248;SDS011;67538;52.180;5.646;2023-05-16T04:10:01;20.13;;;3.63;;
22248;SDS011;67538;52.180;5.646;2023-05-16T04:12:28;18.77;;;3.63;;
22248;SDS011;67538;52.180;5.646;2023-05-16T04:14:57;20.92;;;3.88;;
22248;SDS011;67538;52.180;5.646;2023-05-16T04:17:24;15.95;;;3.72;;
22248;SDS011;67538;52.180;5.646;2023-05-16T04:19:51;13.65;;;3.53;;
22248;SDS011;67538;52.180;5.646;2023-05-16T04:22:19;14.05;;;3.50;;
22248;SDS011;67538;52.180;5.646;2023-05-16T04:24:47;14.83;;;3.30;;
22248;SDS011;67538;52.180;5.646;2023-05-16T04:27:14;15.80;;;3.08;;
22248;SDS011;67538;52.180;5.646;2023-05-16T04:29:41;16.27;;;3.25;;
22248;SDS011;67538;52.180;5.646;2023-05-16T04:32:09;14.32;;;3.30;;
22248;SDS011;67538;52.180;5.646;2023-05-16T04:34:36;19.27;;;3.17;;
22248;SDS011;67538;52.180;5.646;2023-05-16T04:37:04;12.95;;;3.15;;
22248;SDS011;67538;52.180;5.646;2023-05-16T04:39:33;16.05;;;3.78;;
22248;SDS011;67538;52.180;5.646;2023-05-16T04:42:01;14.90;;;3.80;;
22248;SDS011;67538;52.180;5.646;2023-05-16T04:44:28;13.15;;;3.53;;
22248;SDS011;67538;52.180;5.646;2023-05-16T04:46:55;13.90;;;3.43;;
22248;SDS011;67538;52.180;5.646;2023-05-16T04:49:24;15.32;;;3.28;;
22248;SDS011;67538;52.180;5.646;2023-05-16T04:51:51;20.58;;;3.35;;
22248;SDS011;67538;52.180;5.646;2023-05-16T04:54:18;16.00;;;3.27;;
22248;SDS011;67538;52.180;5.646;2023-05-16T04:56:45;18.52;;;3.42;;
22248;SDS011;67538;52.180;5.646;2023-05-16T04:59:12;11.05;;;3.17;;
22248;SDS011;67538;52.180;5.646;2023-05-16T05:01:39;19.48;;;3.60;;
22248;SDS011;67538;52.180;5.646;2023-05-16T05:04:06;14.77;;;3.50;;
22248;SDS011;67538;52.180;5.646;2023-05-16T05:06:34;13.85;;;3.20;;
22248;SDS011;67538;52.180;5.646;2023-05-16T05:09:02;17.30;;;3.80;;
22248;SDS011;67538;52.180;5.646;2023-05-16T05:11:30;15.90;;;3.20;;
22248;SDS011;67538;52.180;5.646;2023-05-16T05:13:57;15.63;;;3.25;;
22248;SDS011;67538;52.180;5.646;2023-05-16T05:16:24;13.45;;;3.20;;
22248;SDS011;67538;52.180;5.646;2023-05-16T05:18:51;14.55;;;3.10;;
22248;SDS011;67538;52.180;5.646;2023-05-16T05:21:18;18.10;;;3.72;;
22248;SDS011;67538;52.180;5.646;2023-05-16T05:23:46;14.65;;;3.50;;
22248;SDS011;67538;52.180;5.646;2023-05-16T05:26:14;16.60;;;3.50;;
22248;SDS011;67538;52.180;5.646;2023-05-16T05:28:41;13.07;;;3.30;;
22248;SDS011;67538;52.180;5.646;2023-05-16T05:31:09;12.48;;;3.15;;
22248;SDS011;67538;52.180;5.646;2023-05-16T05:33:36;14.52;;;3.30;;
22248;SDS011;67538;52.180;5.646;2023-05-16T05:36:03;12.23;;;3.57;;
22248;SDS011;67538;52.180;5.646;2023-05-16T05:38:30;13.55;;;3.42;;
22248;SDS011;67538;52.180;5.646;2023-05-16T05:40:59;14.03;;;3.50;;
22248;SDS011;67538;52.180;5.646;2023-05-16T05:43:26;18.38;;;3.70;;
22248;SDS011;67538;52.180;5.646;2023-05-16T05:45:54;18.38;;;3.30;;
22248;SDS011;67538;52.180;5.646;2023-05-16T05:48:21;14.70;;;3.10;;
22248;SDS011;67538;52.180;5.646;2023-05-16T05:50:48;11.55;;;2.97;;
22248;SDS011;67538;52.180;5.646;2023-05-16T05:53:17;14.50;;;3.25;;
22248;SDS011;67538;52.180;5.646;2023-05-16T05:55:44;18.77;;;3.97;;
22248;SDS011;67538;52.180;5.646;2023-05-16T05:58:12;13.57;;;2.92;;
22248;SDS011;67538;52.180;5.646;2023-05-16T06:00:40;14.10;;;3.20;;
22248;SDS011;67538;52.180;5.646;2023-05-16T06:03:07;12.70;;;2.92;;
22248;SDS011;67538;52.180;5.646;2023-05-16T06:05:34;15.65;;;2.97;;
22248;SDS011;67538;52.180;5.646;2023-05-16T06:08:01;12.82;;;3.05;;
22248;SDS011;67538;52.180;5.646;2023-05-16T06:10:28;18.75;;;2.90;;
22248;SDS011;67538;52.180;5.646;2023-05-16T06:12:55;14.48;;;2.88;;
22248;SDS011;67538;52.180;5.646;2023-05-16T06:15:23;15.32;;;2.90;;
22248;SDS011;67538;52.180;5.646;2023-05-16T06:17:51;10.60;;;2.50;;
22248;SDS011;67538;52.180;5.646;2023-05-16T06:20:18;10.63;;;2.70;;
22248;SDS011;67538;52.180;5.646;2023-05-16T06:22:45;11.13;;;2.60;;
22248;SDS011;67538;52.180;5.646;2023-05-16T06:25:12;12.32;;;2.47;;
22248;SDS011;67538;52.180;5.646;2023-05-16T06:27:39;11.10;;;2.33;;
22248;SDS011;67538;52.180;5.646;2023-05-16T06:30:06;14.05;;;2.97;;
22248;SDS011;67538;52.180;5.646;2023-05-16T06:32:35;12.65;;;2.42;;
22248;SDS011;67538;52.180;5.646;2023-05-16T06:35:04;17.30;;;2.85;;
22248;SDS011;67538;52.180;5.646;2023-05-16T06:37:31;11.73;;;2.80;;
22248;SDS011;67538;52.180;5.646;2023-05-16T06:39:58;12.27;;;2.70;;
22248;SDS011;67538;52.180;5.646;2023-05-16T06:42:25;11.43;;;2.78;;
22248;SDS011;67538;52.180;5.646;2023-05-16T06:44:52;10.30;;;2.42;;
22248;SDS011;67538;52.180;5.646;2023-05-16T06:47:19;9.52;;;2.20;;
22248;SDS011;67538;52.180;5.646;2023-05-16T06:49:48;11.07;;;2.58;;
22248;SDS011;67538;52.180;5.646;2023-05-16T06:52:15;7.07;;;2.05;;
22248;SDS011;67538;52.180;5.646;2023-05-16T06:54:42;9.05;;;2.30;;
22248;SDS011;67538;52.180;5.646;2023-05-16T06:57:09;12.68;;;2.50;;
22248;SDS011;67538;52.180;5.646;2023-05-16T06:59:37;7.78;;;2.30;;
22248;SDS011;67538;52.180;5.646;2023-05-16T07:02:04;9.98;;;2.55;;
22248;SDS011;67538;52.180;5.646;2023-05-16T07:04:32;8.25;;;2.10;;
22248;SDS011;67538;52.180;5.646;2023-05-16T07:07:03;10.70;;;2.17;;
22248;SDS011;67538;52.180;5.646;2023-05-16T07:09:31;8.37;;;2.20;;
22248;SDS011;67538;52.180;5.646;2023-05-16T07:11:58;9.35;;;1.98;;
22248;SDS011;67538;52.180;5.646;2023-05-16T07:14:26;7.50;;;2.17;;
22248;SDS011;67538;52.180;5.646;2023-05-16T07:16:53;10.05;;;2.45;;
22248;SDS011;67538;52.180;5.646;2023-05-16T07:19:20;10.02;;;2.20;;
22248;SDS011;67538;52.180;5.646;2023-05-16T07:21:47;9.32;;;2.30;;
22248;SDS011;67538;52.180;5.646;2023-05-16T07:24:15;6.75;;;2.10;;
22248;SDS011;67538;52.180;5.646;2023-05-16T07:26:42;5.13;;;2.10;;
22248;SDS011;67538;52.180;5.646;2023-05-16T07:29:09;7.43;;;2.28;;
22248;SDS011;67538;52.180;5.646;2023-05-16T07:31:36;8.52;;;2.28;;
22248;SDS011;67538;52.180;5.646;2023-05-16T07:34:03;8.55;;;2.15;;
22248;SDS011;67538;52.180;5.646;2023-05-16T07:36:30;5.88;;;1.92;;
22248;SDS011;67538;52.180;5.646;2023-05-16T07:38:57;10.32;;;2.00;;
22248;SDS011;67538;52.180;5.646;2023-05-16T07:41:26;9.20;;;2.00;;
22248;SDS011;67538;52.180;5.646;2023-05-16T07:43:53;8.35;;;2.40;;
22248;SDS011;67538;52.180;5.646;2023-05-16T07:46:20;9.60;;;2.30;;
22248;SDS011;67538;52.180;5.646;2023-05-16T07:48:47;9.60;;;2.35;;
22248;SDS011;67538;52.180;5.646;2023-05-16T07:51:14;8.15;;;2.42;;
22248;SDS011;67538;52.180;5.646;2023-05-16T07:53:41;8.27;;;2.08;;
22248;SDS011;67538;52.180;5.646;2023-05-16T07:56:08;4.60;;;1.60;;
22248;SDS011;67538;52.180;5.646;2023-05-16T07:58:37;4.60;;;1.60;;
22248;SDS011;67538;52.180;5.646;2023-05-16T08:01:04;5.05;;;1.70;;
22248;SDS011;67538;52.180;5.646;2023-05-16T08:03:32;2.35;;;1.33;;
22248;SDS011;67538;52.180;5.646;2023-05-16T08:06:00;5.47;;;1.65;;
22248;SDS011;67538;52.180;5.646;2023-05-16T08:08:27;4.97;;;1.50;;
22248;SDS011;67538;52.180;5.646;2023-05-16T08:10:54;6.43;;;1.80;;
22248;SDS011;67538;52.180;5.646;2023-05-16T08:13:21;4.13;;;1.58;;
22248;SDS011;67538;52.180;5.646;2023-05-16T08:15:50;6.20;;;1.83;;
22248;SDS011;67538;52.180;5.646;2023-05-16T08:18:17;6.63;;;1.88;;
22248;SDS011;67538;52.180;5.646;2023-05-16T08:20:44;6.13;;;1.80;;
22248;SDS011;67538;52.180;5.646;2023-05-16T08:23:11;8.27;;;2.20;;
22248;SDS011;67538;52.180;5.646;2023-05-16T08:25:39;8.23;;;2.40;;
22248;SDS011;67538;52.180;5.646;2023-05-16T08:28:06;10.00;;;2.33;;
22248;SDS011;67538;52.180;5.646;2023-05-16T08:30:33;9.90;;;2.43;;
22248;SDS011;67538;52.180;5.646;2023-05-16T08:33:02;8.65;;;2.20;;
22248;SDS011;67538;52.180;5.646;2023-05-16T08:35:30;8.73;;;2.40;;
22248;SDS011;67538;52.180;5.646;2023-05-16T08:37:59;7.75;;;2.10;;
22248;SDS011;67538;52.180;5.646;2023-05-16T08:40:27;8.30;;;2.22;;
22248;SDS011;67538;52.180;5.646;2023-05-16T08:42:55;7.53;;;2.00;;
22248;SDS011;67538;52.180;5.646;2023-05-16T08:45:22;8.05;;;2.33;;
22248;SDS011;67538;52.180;5.646;2023-05-16T08:47:52;6.57;;;2.20;;
22248;SDS011;67538;52.180;5.646;2023-05-16T08:50:22;9.32;;;2.13;;
22248;SDS011;67538;52.180;5.646;2023-05-16T08:52:50;8.40;;;2.10;;
22248;SDS011;67538;52.180;5.646;2023-05-16T08:55:19;8.60;;;2.13;;
22248;SDS011;67538;52.180;5.646;2023-05-16T08:57:47;8.57;;;1.80;;
22248;SDS011;67538;52.180;5.646;2023-05-16T09:00:16;7.72;;;2.28;;
22248;SDS011;67538;52.180;5.646;2023-05-16T09:02:44;8.40;;;2.30;;
22248;SDS011;67538;52.180;5.646;2023-05-16T09:05:13;10.95;;;2.40;;
22248;SDS011;67538;52.180;5.646;2023-05-16T09:07:43;10.43;;;2.53;;
22248;SDS011;67538;52.180;5.646;2023-05-16T09:10:11;6.90;;;2.10;;
22248;SDS011;67538;52.180;5.646;2023-05-16T09:12:38;11.85;;;2.50;;
22248;SDS011;67538;52.180;5.646;2023-05-16T09:15:07;12.00;;;2.40;;
22248;SDS011;67538;52.180;5.646;2023-05-16T09:17:36;9.10;;;2.20;;
22248;SDS011;67538;52.180;5.646;2023-05-16T09:20:07;6.28;;;1.88;;
22248;SDS011;67538;52.180;5.646;2023-05-16T09:22:36;8.88;;;2.10;;
22248;SDS011;67538;52.180;5.646;2023-05-16T09:25:05;11.57;;;2.40;;
22248;SDS011;67538;52.180;5.646;2023-05-16T09:27:32;13.02;;;2.40;;
22248;SDS011;67538;52.180;5.646;2023-05-16T09:30:00;7.95;;;2.10;;
22248;SDS011;67538;52.180;5.646;2023-05-16T09:32:27;9.03;;;2.50;;
22248;SDS011;67538;52.180;5.646;2023-05-16T09:34:56;6.40;;;2.00;;
22248;SDS011;67538;52.180;5.646;2023-05-16T09:37:23;6.70;;;1.77;;
22248;SDS011;67538;52.180;5.646;2023-05-16T09:39:51;7.45;;;2.10;;
22248;SDS011;67538;52.180;5.646;2023-05-16T09:42:22;8.00;;;2.03;;
22248;SDS011;67538;52.180;5.646;2023-05-16T09:44:50;7.20;;;1.95;;
22248;SDS011;67538;52.180;5.646;2023-05-16T09:47:18;6.63;;;2.00;;
22248;SDS011;67538;52.180;5.646;2023-05-16T09:49:46;7.43;;;2.00;;
22248;SDS011;67538;52.180;5.646;2023-05-16T09:52:18;8.73;;;2.03;;
22248;SDS011;67538;52.180;5.646;2023-05-16T09:54:45;8.05;;;1.90;;
22248;SDS011;67538;52.180;5.646;2023-05-16T09:57:16;6.33;;;1.70;;
22248;SDS011;67538;52.180;5.646;2023-05-16T09:59:45;6.93;;;1.90;;
22248;SDS011;67538;52.180;5.646;2023-05-16T10:02:12;8.60;;;1.98;;
22248;SDS011;67538;52.180;5.646;2023-05-16T10:04:39;9.23;;;2.60;;
22248;SDS011;67538;52.180;5.646;2023-05-16T10:07:07;8.52;;;2.13;;
22248;SDS011;67538;52.180;5.646;2023-05-16T10:09:35;7.68;;;1.92;;
22248;SDS011;67538;52.180;5.646;2023-05-16T10:12:05;6.93;;;2.00;;
22248;SDS011;67538;52.180;5.646;2023-05-16T10:14:34;9.50;;;2.00;;
22248;SDS011;67538;52.180;5.646;2023-05-16T10:17:04;7.18;;;2.13;;
22248;SDS011;67538;52.180;5.646;2023-05-16T10:19:33;4.53;;;1.90;;
22248;SDS011;67538;52.180;5.646;2023-05-16T10:22:03;8.05;;;1.85;;
22248;SDS011;67538;52.180;5.646;2023-05-16T10:24:34;10.85;;;1.92;;
22248;SDS011;67538;52.180;5.646;2023-05-16T10:27:04;7.10;;;2.20;;
22248;SDS011;67538;52.180;5.646;2023-05-16T10:29:31;7.13;;;1.90;;
22248;SDS011;67538;52.180;5.646;2023-05-16T10:31:58;7.82;;;1.95;;
22248;SDS011;67538;52.180;5.646;2023-05-16T10:34:27;9.98;;;2.05;;
22248;SDS011;67538;52.180;5.646;2023-05-16T10:36:54;6.93;;;2.03;;
22248;SDS011;67538;52.180;5.646;2023-05-16T10:39:22;11.00;;;2.30;;
22248;SDS011;67538;52.180;5.646;2023-05-16T10:41:50;6.53;;;2.00;;
22248;SDS011;67538;52.180;5.646;2023-05-16T10:44:17;9.68;;;1.83;;
22248;SDS011;67538;52.180;5.646;2023-05-16T10:46:45;7.38;;;1.70;;
22248;SDS011;67538;52.180;5.646;2023-05-16T10:49:19;7.90;;;2.03;;
22248;SDS011;67538;52.180;5.646;2023-05-16T10:54:33;8.90;;;2.00;;
22248;SDS011;67538;52.180;5.646;2023-05-16T10:57:05;9.07;;;1.85;;
22248;SDS011;67538;52.180;5.646;2023-05-16T10:59:41;7.47;;;1.92;;
22248;SDS011;67538;52.180;5.646;2023-05-16T11:02:23;6.27;;;1.70;;
22248;SDS011;67538;52.180;5.646;2023-05-16T11:04:51;8.23;;;1.83;;
22248;SDS011;67538;52.180;5.646;2023-05-16T11:07:22;6.47;;;2.17;;
22248;SDS011;67538;52.180;5.646;2023-05-16T11:10:03;4.80;;;1.77;;
22248;SDS011;67538;52.180;5.646;2023-05-16T11:12:35;6.65;;;1.90;;
22248;SDS011;67538;52.180;5.646;2023-05-16T11:15:16;4.93;;;2.08;;
22248;SDS011;67538;52.180;5.646;2023-05-16T11:17:45;7.43;;;1.77;;
22248;SDS011;67538;52.180;5.646;2023-05-16T11:20:23;6.40;;;1.95;;
22248;SDS011;67538;52.180;5.646;2023-05-16T11:22:55;8.65;;;2.20;;
22248;SDS011;67538;52.180;5.646;2023-05-16T11:25:47;10.32;;;2.33;;
22248;SDS011;67538;52.180;5.646;2023-05-16T11:28:16;7.28;;;2.00;;
22248;SDS011;67538;52.180;5.646;2023-05-16T11:30:45;6.50;;;1.92;;
22248;SDS011;67538;52.180;5.646;2023-05-16T11:33:13;5.30;;;1.80;;
22248;SDS011;67538;52.180;5.646;2023-05-16T11:35:40;5.97;;;1.98;;
22248;SDS011;67538;52.180;5.646;2023-05-16T11:38:13;6.15;;;1.98;;
22248;SDS011;67538;52.180;5.646;2023-05-16T11:40:41;9.52;;;2.00;;
22248;SDS011;67538;52.180;5.646;2023-05-16T11:43:09;7.15;;;1.80;;
22248;SDS011;67538;52.180;5.646;2023-05-16T11:45:37;5.38;;;1.70;;
22248;SDS011;67538;52.180;5.646;2023-05-16T11:48:04;8.35;;;2.03;;
22248;SDS011;67538;52.180;5.646;2023-05-16T11:50:33;7.78;;;1.85;;
22248;SDS011;67538;52.180;5.646;2023-05-16T11:53:00;8.33;;;1.63;;
22248;SDS011;67538;52.180;5.646;2023-05-16T11:55:29;7.18;;;1.95;;
22248;SDS011;67538;52.180;5.646;2023-05-16T11:57:57;6.32;;;2.03;;
22248;SDS011;67538;52.180;5.646;2023-05-16T12:00:25;6.00;;;1.90;;
22248;SDS011;67538;52.180;5.646;2023-05-16T12:02:53;7.15;;;2.03;;
22248;SDS011;67538;52.180;5.646;2023-05-16T12:05:26;7.30;;;2.03;;
22248;SDS011;67538;52.180;5.646;2023-05-16T12:07:55;9.27;;;2.30;;
22248;SDS011;67538;52.180;5.646;2023-05-16T12:10:23;7.78;;;2.00;;
22248;SDS011;67538;52.180;5.646;2023-05-16T12:12:52;8.65;;;2.10;;
22248;SDS011;67538;52.180;5.646;2023-05-16T12:15:20;11.90;;;2.40;;
22248;SDS011;67538;52.180;5.646;2023-05-16T12:17:47;8.95;;;2.40;;
22248;SDS011;67538;52.180;5.646;2023-05-16T12:20:15;7.47;;;2.15;;
22248;SDS011;67538;52.180;5.646;2023-05-16T12:22:43;8.90;;;2.30;;
22248;SDS011;67538;52.180;5.646;2023-05-16T12:25:20;6.05;;;1.90;;
22248;SDS011;67538;52.180;5.646;2023-05-16T12:27:48;10.77;;;2.10;;
22248;SDS011;67538;52.180;5.646;2023-05-16T12:30:17;6.32;;;2.08;;
22248;SDS011;67538;52.180;5.646;2023-05-16T12:32:44;8.57;;;2.30;;
22248;SDS011;67538;52.180;5.646;2023-05-16T12:35:11;7.50;;;2.28;;
22248;SDS011;67538;52.180;5.646;2023-05-16T12:37:38;5.78;;;1.90;;
22248;SDS011;67538;52.180;5.646;2023-05-16T12:40:06;6.10;;;1.92;;
22248;SDS011;67538;52.180;5.646;2023-05-16T12:42:36;6.50;;;2.20;;
22248;SDS011;67538;52.180;5.646;2023-05-16T12:45:04;6.38;;;1.90;;
22248;SDS011;67538;52.180;5.646;2023-05-16T12:47:40;7.15;;;1.90;;
22248;SDS011;67538;52.180;5.646;2023-05-16T12:50:08;6.13;;;2.15;;
22248;SDS011;67538;52.180;5.646;2023-05-16T12:52:45;9.02;;;2.20;;
22248;SDS011;67538;52.180;5.646;2023-05-16T12:55:13;10.05;;;2.45;;
22248;SDS011;67538;52.180;5.646;2023-05-16T12:57:40;7.68;;;2.30;;
22248;SDS011;67538;52.180;5.646;2023-05-16T13:00:09;7.13;;;1.90;;
22248;SDS011;67538;52.180;5.646;2023-05-16T13:02:37;8.98;;;2.25;;
22248;SDS011;67538;52.180;5.646;2023-05-16T13:05:06;9.00;;;2.38;;
22248;SDS011;67538;52.180;5.646;2023-05-16T13:07:34;7.47;;;2.30;;
22248;SDS011;67538;52.180;5.646;2023-05-16T13:10:01;8.20;;;2.47;;
22248;SDS011;67538;52.180;5.646;2023-05-16T13:12:30;7.00;;;2.10;;
22248;SDS011;67538;52.180;5.646;2023-05-16T13:14:57;7.38;;;2.20;;
22248;SDS011;67538;52.180;5.646;2023-05-16T13:17:24;8.63;;;2.20;;
22248;SDS011;67538;52.180;5.646;2023-05-16T13:19:51;8.15;;;2.10;;
22248;SDS011;67538;52.180;5.646;2023-05-16T13:22:19;7.25;;;2.25;;
22248;SDS011;67538;52.180;5.646;2023-05-16T13:24:46;6.15;;;2.00;;
22248;SDS011;67538;52.180;5.646;2023-05-16T13:27:14;7.32;;;2.15;;
22248;SDS011;67538;52.180;5.646;2023-05-16T13:29:42;10.77;;;2.22;;
22248;SDS011;67538;52.180;5.646;2023-05-16T13:32:10;9.05;;;2.58;;
22248;SDS011;67538;52.180;5.646;2023-05-16T13:34:37;8.47;;;2.40;;
22248;SDS011;67538;52.180;5.646;2023-05-16T13:37:04;11.47;;;2.30;;
22248;SDS011;67538;52.180;5.646;2023-05-16T13:39:32;8.95;;;2.20;;
22248;SDS011;67538;52.180;5.646;2023-05-16T13:42:00;9.40;;;2.20;;
22248;SDS011;67538;52.180;5.646;2023-05-16T13:44:28;9.27;;;2.20;;
22248;SDS011;67538;52.180;5.646;2023-05-16T13:46:55;10.15;;;2.40;;
22248;SDS011;67538;52.180;5.646;2023-05-16T13:49:22;11.88;;;2.95;;
22248;SDS011;67538;52.180;5.646;2023-05-16T13:51:49;8.93;;;2.50;;
22248;SDS011;67538;52.180;5.646;2023-05-16T13:54:17;11.80;;;2.78;;
22248;SDS011;67538;52.180;5.646;2023-05-16T13:56:45;9.88;;;2.55;;
22248;SDS011;67538;52.180;5.646;2023-05-16T13:59:13;8.77;;;2.55;;
22248;SDS011;67538;52.180;5.646;2023-05-16T14:01:40;11.55;;;2.38;;
22248;SDS011;67538;52.180;5.646;2023-05-16T14:04:07;10.07;;;2.40;;
22248;SDS011;67538;52.180;5.646;2023-05-16T14:06:34;10.57;;;2.45;;
22248;SDS011;67538;52.180;5.646;2023-05-16T14:09:01;11.68;;;2.38;;
22248;SDS011;67538;52.180;5.646;2023-05-16T14:11:28;10.90;;;2.55;;
22248;SDS011;67538;52.180;5.646;2023-05-16T14:13:57;9.88;;;2.55;;
22248;SDS011;67538;52.180;5.646;2023-05-16T14:16:24;9.82;;;2.10;;
22248;SDS011;67538;52.180;5.646;2023-05-16T14:18:51;8.55;;;2.28;;
22248;SDS011;67538;52.180;5.646;2023-05-16T14:21:18;11.02;;;2.30;;
22248;SDS011;67538;52.180;5.646;2023-05-16T14:23:45;7.93;;;2.28;;
22248;SDS011;67538;52.180;5.646;2023-05-16T14:26:13;10.20;;;2.73;;
22248;SDS011;67538;52.180;5.646;2023-05-16T14:28:40;8.73;;;2.28;;
22248;SDS011;67538;52.180;5.646;2023-05-16T14:31:09;9.32;;;2.28;;
22248;SDS011;67538;52.180;5.646;2023-05-16T14:33:36;9.10;;;2.45;;
22248;SDS011;67538;52.180;5.646;2023-05-16T14:36:05;9.43;;;2.60;;
22248;SDS011;67538;52.180;5.646;2023-05-16T14:38:32;8.23;;;2.42;;
22248;SDS011;67538;52.180;5.646;2023-05-16T14:40:59;10.55;;;2.50;;
22248;SDS011;67538;52.180;5.646;2023-05-16T14:43:26;11.35;;;2.50;;
22248;SDS011;67538;52.180;5.646;2023-05-16T14:45:53;9.90;;;2.60;;
22248;SDS011;67538;52.180;5.646;2023-05-16T14:48:22;11.82;;;2.55;;
22248;SDS011;67538;52.180;5.646;2023-05-16T14:50:49;8.38;;;2.53;;